<?xml version='1.0' encoding='UTF-8'?><gpx version="1.1" creator="JPX - https://github.com/jenetics/jpx" xmlns="http://www.topografix.com/GPX/1/1"><trk><trkseg><trkpt lat="45.8036589" lon="8.6737628"><ele>273.0</ele><time>2026-04-26T10:00:42.065Z</time></trkpt><trkpt lat="45.8037283" lon="8.673575"><ele>273.0</ele><time>2026-04-26T10:00:46.065Z</time></trkpt><trkpt lat="45.8038233" lon="8.6734767"><ele>273.0</ele><time>2026-04-26T10:00:48.065Z</time></trkpt><trkpt lat="45.803875" lon="8.67342"><ele>273.0</ele><time>2026-04-26T10:00:49.066Z</time></trkpt><trkpt lat="45.80397" lon="8.6733033"><ele>273.0</ele><time>2026-04-26T10:00:51.065Z</time></trkpt><trkpt lat="45.8040233" lon="8.673255"><ele>273.0</ele><time>2026-04-26T10:00:52.065Z</time></trkpt><trkpt lat="45.804085" lon="8.673215"><ele>273.0</ele><time>2026-04-26T10:00:53.065Z</time></trkpt><trkpt lat="45.8041533" lon="8.6731683"><ele>273.0</ele><time>2026-04-26T10:00:54.065Z</time></trkpt><trkpt lat="45.8042267" lon="8.673125"><ele>273.0</ele><time>2026-04-26T10:00:55.065Z</time></trkpt><trkpt lat="45.8043117" lon="8.67309"><ele>273.0</ele><time>2026-04-26T10:00:56.065Z</time></trkpt><trkpt lat="45.8044033" lon="8.6730333"><ele>273.0</ele><time>2026-04-26T10:00:57.065Z</time></trkpt><trkpt lat="45.80448" lon="8.6729883"><ele>273.0</ele><time>2026-04-26T10:00:58.065Z</time></trkpt><trkpt lat="45.80455" lon="8.6729733"><ele>273.0</ele><time>2026-04-26T10:00:59.065Z</time></trkpt><trkpt lat="45.80462" lon="8.6729817"><ele>273.0</ele><time>2026-04-26T10:01:00.065Z</time></trkpt><trkpt lat="45.8046917" lon="8.6730367"><ele>273.0</ele><time>2026-04-26T10:01:01.065Z</time></trkpt><trkpt lat="45.8047367" lon="8.67313"><ele>273.0</ele><time>2026-04-26T10:01:02.065Z</time></trkpt><trkpt lat="45.8047767" lon="8.6732117"><ele>273.0</ele><time>2026-04-26T10:01:03.065Z</time></trkpt><trkpt lat="45.8048067" lon="8.6732933"><ele>273.0</ele><time>2026-04-26T10:01:04.065Z</time></trkpt><trkpt lat="45.8048267" lon="8.67338"><ele>273.0</ele><time>2026-04-26T10:01:05.065Z</time></trkpt><trkpt lat="45.8048583" lon="8.6735633"><ele>273.0</ele><time>2026-04-26T10:01:07.065Z</time></trkpt><trkpt lat="45.8048583" lon="8.6736833"><ele>273.0</ele><time>2026-04-26T10:01:08.065Z</time></trkpt><trkpt lat="45.8048583" lon="8.6738083"><ele>273.0</ele><time>2026-04-26T10:01:09.065Z</time></trkpt><trkpt lat="45.8048633" lon="8.673945"><ele>272.6</ele><time>2026-04-26T10:01:10.065Z</time></trkpt><trkpt lat="45.8048833" lon="8.6740867"><ele>272.20000000000005</ele><time>2026-04-26T10:01:11.065Z</time></trkpt><trkpt lat="45.8048883" lon="8.6742017"><ele>271.8</ele><time>2026-04-26T10:01:12.065Z</time></trkpt><trkpt lat="45.8049083" lon="8.67439"><ele>271.40000000000003</ele><time>2026-04-26T10:01:14.065Z</time></trkpt><trkpt lat="45.8049117" lon="8.6745033"><ele>271.0</ele><time>2026-04-26T10:01:15.066Z</time></trkpt><trkpt lat="45.804925" lon="8.6746183"><ele>270.8333333333333</ele><time>2026-04-26T10:01:16.066Z</time></trkpt><trkpt lat="45.80495" lon="8.6747217"><ele>270.66666666666663</ele><time>2026-04-26T10:01:17.065Z</time></trkpt><trkpt lat="45.8049833" lon="8.6748267"><ele>270.5</ele><time>2026-04-26T10:01:18.065Z</time></trkpt><trkpt lat="45.8050083" lon="8.6749467"><ele>270.3333333333333</ele><time>2026-04-26T10:01:19.065Z</time></trkpt><trkpt lat="45.8050317" lon="8.6750683"><ele>270.1666666666667</ele><time>2026-04-26T10:01:20.065Z</time></trkpt><trkpt lat="45.8050617" lon="8.6751917"><ele>270.0</ele><time>2026-04-26T10:01:21.066Z</time></trkpt><trkpt lat="45.80508" lon="8.6753017"><ele>269.6</ele><time>2026-04-26T10:01:22.066Z</time></trkpt><trkpt lat="45.805085" lon="8.675425"><ele>269.2</ele><time>2026-04-26T10:01:23.065Z</time></trkpt><trkpt lat="45.8050917" lon="8.6755533"><ele>268.8</ele><time>2026-04-26T10:01:24.065Z</time></trkpt><trkpt lat="45.8051017" lon="8.675685"><ele>268.4</ele><time>2026-04-26T10:01:25.065Z</time></trkpt><trkpt lat="45.80511" lon="8.675825"><ele>268.0</ele><time>2026-04-26T10:01:26.065Z</time></trkpt><trkpt lat="45.8051183" lon="8.6759617"><ele>268.0</ele><time>2026-04-26T10:01:27.065Z</time></trkpt><trkpt lat="45.805115" lon="8.6760917"><ele>268.0</ele><time>2026-04-26T10:01:28.065Z</time></trkpt><trkpt lat="45.8050933" lon="8.67622"><ele>268.0</ele><time>2026-04-26T10:01:29.065Z</time></trkpt><trkpt lat="45.8050667" lon="8.6763467"><ele>268.0</ele><time>2026-04-26T10:01:30.065Z</time></trkpt><trkpt lat="45.80504" lon="8.67648"><ele>268.0</ele><time>2026-04-26T10:01:31.065Z</time></trkpt><trkpt lat="45.8050017" lon="8.6766133"><ele>268.2</ele><time>2026-04-26T10:01:32.065Z</time></trkpt><trkpt lat="45.80495" lon="8.6767333"><ele>268.4</ele><time>2026-04-26T10:01:33.065Z</time></trkpt><trkpt lat="45.804905" lon="8.67683"><ele>268.59999999999997</ele><time>2026-04-26T10:01:34.065Z</time></trkpt><trkpt lat="45.8048533" lon="8.67692"><ele>268.8</ele><time>2026-04-26T10:01:35.065Z</time></trkpt><trkpt lat="45.8048117" lon="8.67699"><ele>269.0</ele><time>2026-04-26T10:01:36.065Z</time></trkpt><trkpt lat="45.8047617" lon="8.6771617"><ele>268.59999999999997</ele><time>2026-04-26T10:01:38.065Z</time></trkpt><trkpt lat="45.8047483" lon="8.6772883"><ele>268.2</ele><time>2026-04-26T10:01:39.066Z</time></trkpt><trkpt lat="45.80476" lon="8.677425"><ele>267.79999999999995</ele><time>2026-04-26T10:01:40.065Z</time></trkpt><trkpt lat="45.8047883" lon="8.677565"><ele>267.4</ele><time>2026-04-26T10:01:41.065Z</time></trkpt><trkpt lat="45.8048283" lon="8.67771"><ele>267.0</ele><time>2026-04-26T10:01:42.065Z</time></trkpt><trkpt lat="45.8048733" lon="8.677845"><ele>266.8</ele><time>2026-04-26T10:01:43.065Z</time></trkpt><trkpt lat="45.8049183" lon="8.6779783"><ele>266.6</ele><time>2026-04-26T10:01:44.065Z</time></trkpt><trkpt lat="45.8049767" lon="8.678075"><ele>266.40000000000003</ele><time>2026-04-26T10:01:45.065Z</time></trkpt><trkpt lat="45.8050333" lon="8.678175"><ele>266.2</ele><time>2026-04-26T10:01:46.065Z</time></trkpt><trkpt lat="45.8051017" lon="8.678285"><ele>266.0</ele><time>2026-04-26T10:01:47.065Z</time></trkpt><trkpt lat="45.8051567" lon="8.678405"><ele>265.6</ele><time>2026-04-26T10:01:48.065Z</time></trkpt><trkpt lat="45.8052" lon="8.6785167"><ele>265.20000000000005</ele><time>2026-04-26T10:01:49.065Z</time></trkpt><trkpt lat="45.8052217" lon="8.6786517"><ele>264.79999999999995</ele><time>2026-04-26T10:01:50.065Z</time></trkpt><trkpt lat="45.8052333" lon="8.678805"><ele>264.4</ele><time>2026-04-26T10:01:51.065Z</time></trkpt><trkpt lat="45.8052417" lon="8.678985"><ele>264.0</ele><time>2026-04-26T10:01:52.065Z</time></trkpt><trkpt lat="45.8052567" lon="8.6791567"><ele>264.0</ele><time>2026-04-26T10:01:53.065Z</time></trkpt><trkpt lat="45.805275" lon="8.679315"><ele>264.0</ele><time>2026-04-26T10:01:54.065Z</time></trkpt><trkpt lat="45.8053133" lon="8.679475"><ele>264.0</ele><time>2026-04-26T10:01:55.065Z</time></trkpt><trkpt lat="45.8053633" lon="8.679625"><ele>264.0</ele><time>2026-04-26T10:01:56.065Z</time></trkpt><trkpt lat="45.80541" lon="8.6797567"><ele>264.0</ele><time>2026-04-26T10:01:57.065Z</time></trkpt><trkpt lat="45.8054483" lon="8.6798833"><ele>263.4</ele><time>2026-04-26T10:01:58.065Z</time></trkpt><trkpt lat="45.8054717" lon="8.6800067"><ele>262.79999999999995</ele><time>2026-04-26T10:01:59.065Z</time></trkpt><trkpt lat="45.8054767" lon="8.6801483"><ele>262.20000000000005</ele><time>2026-04-26T10:02:00.065Z</time></trkpt><trkpt lat="45.8054917" lon="8.6802867"><ele>261.6</ele><time>2026-04-26T10:02:01.065Z</time></trkpt><trkpt lat="45.8055183" lon="8.6804233"><ele>261.0</ele><time>2026-04-26T10:02:02.065Z</time></trkpt><trkpt lat="45.8055533" lon="8.68055"><ele>260.8</ele><time>2026-04-26T10:02:03.065Z</time></trkpt><trkpt lat="45.8055917" lon="8.68066"><ele>260.6</ele><time>2026-04-26T10:02:04.065Z</time></trkpt><trkpt lat="45.80563" lon="8.68075"><ele>260.4</ele><time>2026-04-26T10:02:05.065Z</time></trkpt><trkpt lat="45.8056667" lon="8.68083"><ele>260.2</ele><time>2026-04-26T10:02:06.066Z</time></trkpt><trkpt lat="45.8057417" lon="8.6809517"><ele>260.0</ele><time>2026-04-26T10:02:08.065Z</time></trkpt><trkpt lat="45.8058483" lon="8.6810667"><ele>259.83333333333337</ele><time>2026-04-26T10:02:10.065Z</time></trkpt><trkpt lat="45.8059283" lon="8.6811267"><ele>259.6666666666667</ele><time>2026-04-26T10:02:11.066Z</time></trkpt><trkpt lat="45.8059967" lon="8.6811617"><ele>259.5</ele><time>2026-04-26T10:02:12.065Z</time></trkpt><trkpt lat="45.8060617" lon="8.68117"><ele>259.3333333333333</ele><time>2026-04-26T10:02:13.065Z</time></trkpt><trkpt lat="45.8061233" lon="8.681145"><ele>259.16666666666663</ele><time>2026-04-26T10:02:14.065Z</time></trkpt><trkpt lat="45.8061617" lon="8.6809467"><ele>259.0</ele><time>2026-04-26T10:02:16.065Z</time></trkpt><trkpt lat="45.8061817" lon="8.680805"><ele>259.0</ele><time>2026-04-26T10:02:17.065Z</time></trkpt><trkpt lat="45.8062133" lon="8.6806933"><ele>259.0</ele><time>2026-04-26T10:02:18.065Z</time></trkpt><trkpt lat="45.8062517" lon="8.6806217"><ele>259.0</ele><time>2026-04-26T10:02:19.065Z</time></trkpt><trkpt lat="45.8063167" lon="8.680585"><ele>259.0</ele><time>2026-04-26T10:02:20.065Z</time></trkpt><trkpt lat="45.8063883" lon="8.6805817"><ele>259.0</ele><time>2026-04-26T10:02:21.065Z</time></trkpt><trkpt lat="45.8064767" lon="8.6805933"><ele>259.0</ele><time>2026-04-26T10:02:22.066Z</time></trkpt><trkpt lat="45.8065817" lon="8.6806017"><ele>259.0</ele><time>2026-04-26T10:02:23.065Z</time></trkpt><trkpt lat="45.8067033" lon="8.6806333"><ele>259.0</ele><time>2026-04-26T10:02:24.065Z</time></trkpt><trkpt lat="45.8068333" lon="8.6806417"><ele>259.0</ele><time>2026-04-26T10:02:25.065Z</time></trkpt><trkpt lat="45.8069733" lon="8.68065"><ele>259.0</ele><time>2026-04-26T10:02:26.066Z</time></trkpt><trkpt lat="45.8071067" lon="8.6806733"><ele>259.8</ele><time>2026-04-26T10:02:27.065Z</time></trkpt><trkpt lat="45.8072233" lon="8.68069"><ele>260.59999999999997</ele><time>2026-04-26T10:02:28.065Z</time></trkpt><trkpt lat="45.8073333" lon="8.6807067"><ele>261.4</ele><time>2026-04-26T10:02:29.065Z</time></trkpt><trkpt lat="45.8074417" lon="8.6807167"><ele>262.2</ele><time>2026-04-26T10:02:30.065Z</time></trkpt><trkpt lat="45.8075517" lon="8.68072"><ele>263.0</ele><time>2026-04-26T10:02:31.065Z</time></trkpt><trkpt lat="45.80766" lon="8.68072"><ele>263.6</ele><time>2026-04-26T10:02:32.066Z</time></trkpt><trkpt lat="45.8077717" lon="8.6807267"><ele>264.20000000000005</ele><time>2026-04-26T10:02:33.066Z</time></trkpt><trkpt lat="45.8078733" lon="8.6807333"><ele>264.8</ele><time>2026-04-26T10:02:34.065Z</time></trkpt><trkpt lat="45.8079683" lon="8.6807367"><ele>265.40000000000003</ele><time>2026-04-26T10:02:35.065Z</time></trkpt><trkpt lat="45.8080417" lon="8.6807317"><ele>266.0</ele><time>2026-04-26T10:02:36.065Z</time></trkpt><trkpt lat="45.8081117" lon="8.6807317"><ele>266.0</ele><time>2026-04-26T10:02:37.065Z</time></trkpt><trkpt lat="45.8081767" lon="8.6807217"><ele>266.0</ele><time>2026-04-26T10:02:38.065Z</time></trkpt><trkpt lat="45.8082417" lon="8.6806967"><ele>266.0</ele><time>2026-04-26T10:02:39.065Z</time></trkpt><trkpt lat="45.8083067" lon="8.68064"><ele>266.0</ele><time>2026-04-26T10:02:40.065Z</time></trkpt><trkpt lat="45.8083733" lon="8.68058"><ele>266.0</ele><time>2026-04-26T10:02:41.066Z</time></trkpt><trkpt lat="45.8084383" lon="8.6805383"><ele>266.0</ele><time>2026-04-26T10:02:42.065Z</time></trkpt><trkpt lat="45.8085117" lon="8.6805317"><ele>266.0</ele><time>2026-04-26T10:02:43.065Z</time></trkpt><trkpt lat="45.8085833" lon="8.6805667"><ele>266.1666666666667</ele><time>2026-04-26T10:02:44.065Z</time></trkpt><trkpt lat="45.80866" lon="8.680615"><ele>266.33333333333337</ele><time>2026-04-26T10:02:45.065Z</time></trkpt><trkpt lat="45.8087283" lon="8.6806767"><ele>266.5</ele><time>2026-04-26T10:02:46.065Z</time></trkpt><trkpt lat="45.808805" lon="8.6807333"><ele>266.6666666666667</ele><time>2026-04-26T10:02:47.065Z</time></trkpt><trkpt lat="45.8088917" lon="8.6807933"><ele>266.8333333333333</ele><time>2026-04-26T10:02:48.065Z</time></trkpt><trkpt lat="45.8089667" lon="8.68086"><ele>267.0</ele><time>2026-04-26T10:02:49.065Z</time></trkpt><trkpt lat="45.8090383" lon="8.68091"><ele>267.0</ele><time>2026-04-26T10:02:50.065Z</time></trkpt><trkpt lat="45.8090983" lon="8.6809633"><ele>267.0</ele><time>2026-04-26T10:02:51.065Z</time></trkpt><trkpt lat="45.809145" lon="8.681025"><ele>267.0</ele><time>2026-04-26T10:02:52.065Z</time></trkpt><trkpt lat="45.8091983" lon="8.68109"><ele>267.0</ele><time>2026-04-26T10:02:53.065Z</time></trkpt><trkpt lat="45.8092583" lon="8.68117"><ele>267.0</ele><time>2026-04-26T10:02:54.065Z</time></trkpt><trkpt lat="45.809325" lon="8.6812617"><ele>267.0</ele><time>2026-04-26T10:02:55.065Z</time></trkpt><trkpt lat="45.8094133" lon="8.68138"><ele>268.0</ele><time>2026-04-26T10:02:56.065Z</time></trkpt><trkpt lat="45.8095133" lon="8.681515"><ele>269.0</ele><time>2026-04-26T10:02:57.065Z</time></trkpt><trkpt lat="45.809615" lon="8.6816333"><ele>270.0</ele><time>2026-04-26T10:02:58.065Z</time></trkpt><trkpt lat="45.8097017" lon="8.6817317"><ele>271.0</ele><time>2026-04-26T10:02:59.065Z</time></trkpt><trkpt lat="45.8097783" lon="8.6818267"><ele>271.0</ele><time>2026-04-26T10:03:00.065Z</time></trkpt><trkpt lat="45.8098533" lon="8.6819117"><ele>271.0</ele><time>2026-04-26T10:03:01.065Z</time></trkpt><trkpt lat="45.8099333" lon="8.6819933"><ele>271.0</ele><time>2026-04-26T10:03:02.065Z</time></trkpt><trkpt lat="45.8099983" lon="8.6820583"><ele>271.0</ele><time>2026-04-26T10:03:03.065Z</time></trkpt><trkpt lat="45.8100533" lon="8.68212"><ele>271.0</ele><time>2026-04-26T10:03:04.065Z</time></trkpt><trkpt lat="45.8101133" lon="8.6821933"><ele>271.0</ele><time>2026-04-26T10:03:05.065Z</time></trkpt><trkpt lat="45.81018" lon="8.682275"><ele>271.2</ele><time>2026-04-26T10:03:06.065Z</time></trkpt><trkpt lat="45.810245" lon="8.6823683"><ele>271.40000000000003</ele><time>2026-04-26T10:03:07.065Z</time></trkpt><trkpt lat="45.8103083" lon="8.6824583"><ele>271.6</ele><time>2026-04-26T10:03:08.065Z</time></trkpt><trkpt lat="45.810385" lon="8.6825233"><ele>271.8</ele><time>2026-04-26T10:03:09.065Z</time></trkpt><trkpt lat="45.810475" lon="8.682595"><ele>272.0</ele><time>2026-04-26T10:03:10.065Z</time></trkpt><trkpt lat="45.810555" lon="8.6826583"><ele>272.0</ele><time>2026-04-26T10:03:11.065Z</time></trkpt><trkpt lat="45.8106233" lon="8.6827067"><ele>272.0</ele><time>2026-04-26T10:03:12.065Z</time></trkpt><trkpt lat="45.8107083" lon="8.6827417"><ele>272.0</ele><time>2026-04-26T10:03:13.065Z</time></trkpt><trkpt lat="45.81079" lon="8.6827767"><ele>272.0</ele><time>2026-04-26T10:03:14.066Z</time></trkpt><trkpt lat="45.8108617" lon="8.6828117"><ele>272.0</ele><time>2026-04-26T10:03:15.065Z</time></trkpt><trkpt lat="45.8109217" lon="8.6828533"><ele>272.0</ele><time>2026-04-26T10:03:16.065Z</time></trkpt><trkpt lat="45.8109883" lon="8.682965"><ele>270.8</ele><time>2026-04-26T10:03:18.065Z</time></trkpt><trkpt lat="45.81098" lon="8.683135"><ele>269.6</ele><time>2026-04-26T10:03:20.065Z</time></trkpt><trkpt lat="45.81096" lon="8.6832433"><ele>268.40000000000003</ele><time>2026-04-26T10:03:21.065Z</time></trkpt><trkpt lat="45.8109383" lon="8.6833633"><ele>267.2</ele><time>2026-04-26T10:03:22.065Z</time></trkpt><trkpt lat="45.8109067" lon="8.6835"><ele>266.0</ele><time>2026-04-26T10:03:23.065Z</time></trkpt><trkpt lat="45.8108733" lon="8.6836433"><ele>266.0</ele><time>2026-04-26T10:03:24.066Z</time></trkpt><trkpt lat="45.8108333" lon="8.6837717"><ele>266.0</ele><time>2026-04-26T10:03:25.065Z</time></trkpt><trkpt lat="45.8107983" lon="8.6838883"><ele>266.0</ele><time>2026-04-26T10:03:26.065Z</time></trkpt><trkpt lat="45.8107683" lon="8.68401"><ele>266.0</ele><time>2026-04-26T10:03:27.065Z</time></trkpt><trkpt lat="45.8107467" lon="8.6841283"><ele>266.0</ele><time>2026-04-26T10:03:28.065Z</time></trkpt><trkpt lat="45.8107283" lon="8.6842417"><ele>266.0</ele><time>2026-04-26T10:03:29.065Z</time></trkpt><trkpt lat="45.8107083" lon="8.6843567"><ele>267.2</ele><time>2026-04-26T10:03:30.065Z</time></trkpt><trkpt lat="45.8106983" lon="8.68446"><ele>268.40000000000003</ele><time>2026-04-26T10:03:31.065Z</time></trkpt><trkpt lat="45.8107083" lon="8.6846283"><ele>269.6</ele><time>2026-04-26T10:03:33.065Z</time></trkpt><trkpt lat="45.810725" lon="8.6847267"><ele>270.8</ele><time>2026-04-26T10:03:35.065Z</time></trkpt><trkpt lat="45.8107783" lon="8.6848067"><ele>272.0</ele><time>2026-04-26T10:03:37.065Z</time></trkpt><trkpt lat="45.8108933" lon="8.6848683"><ele>272.0</ele><time>2026-04-26T10:03:39.065Z</time></trkpt><trkpt lat="45.810965" lon="8.6848883"><ele>272.0</ele><time>2026-04-26T10:03:40.065Z</time></trkpt><trkpt lat="45.8110683" lon="8.684895"><ele>272.0</ele><time>2026-04-26T10:03:42.065Z</time></trkpt><trkpt lat="45.811135" lon="8.6848733"><ele>272.0</ele><time>2026-04-26T10:03:44.065Z</time></trkpt><trkpt lat="45.8111983" lon="8.6848533"><ele>272.0</ele><time>2026-04-26T10:03:46.065Z</time></trkpt><trkpt lat="45.81112" lon="8.684875"><ele>272.0</ele><time>2026-04-26T10:03:58.065Z</time></trkpt><trkpt lat="45.8110333" lon="8.6848667"><ele>272.0</ele><time>2026-04-26T10:04:00.065Z</time></trkpt><trkpt lat="45.81094" lon="8.68484"><ele>272.0</ele><time>2026-04-26T10:04:02.065Z</time></trkpt><trkpt lat="45.8108333" lon="8.6847883"><ele>272.0</ele><time>2026-04-26T10:04:04.065Z</time></trkpt><trkpt lat="45.8107483" lon="8.6847383"><ele>272.0</ele><time>2026-04-26T10:04:06.065Z</time></trkpt><trkpt lat="45.8107317" lon="8.6848517"><ele>272.0</ele><time>2026-04-26T10:04:12.065Z</time></trkpt><trkpt lat="45.8107267" lon="8.6849583"><ele>272.0</ele><time>2026-04-26T10:04:14.065Z</time></trkpt><trkpt lat="45.810725" lon="8.6851233"><ele>272.0</ele><time>2026-04-26T10:04:16.065Z</time></trkpt><trkpt lat="45.8107" lon="8.6852183"><ele>272.0</ele><time>2026-04-26T10:04:17.065Z</time></trkpt><trkpt lat="45.8106867" lon="8.6853233"><ele>272.0</ele><time>2026-04-26T10:04:18.065Z</time></trkpt><trkpt lat="45.8106767" lon="8.6854267"><ele>272.0</ele><time>2026-04-26T10:04:19.065Z</time></trkpt><trkpt lat="45.8106667" lon="8.6855167"><ele>272.0</ele><time>2026-04-26T10:04:20.065Z</time></trkpt><trkpt lat="45.8106567" lon="8.6856583"><ele>272.0</ele><time>2026-04-26T10:04:22.065Z</time></trkpt><trkpt lat="45.810635" lon="8.6857533"><ele>272.0</ele><time>2026-04-26T10:04:24.065Z</time></trkpt><trkpt lat="45.8105783" lon="8.6858367"><ele>272.0</ele><time>2026-04-26T10:04:31.065Z</time></trkpt><trkpt lat="45.81052" lon="8.685905"><ele>272.0</ele><time>2026-04-26T10:04:33.065Z</time></trkpt><trkpt lat="45.8104483" lon="8.6859817"><ele>272.0</ele><time>2026-04-26T10:04:35.066Z</time></trkpt><trkpt lat="45.8103633" lon="8.6860733"><ele>272.0</ele><time>2026-04-26T10:04:37.065Z</time></trkpt><trkpt lat="45.8102483" lon="8.6861767"><ele>271.5</ele><time>2026-04-26T10:04:39.065Z</time></trkpt><trkpt lat="45.8101783" lon="8.6862233"><ele>271.0</ele><time>2026-04-26T10:04:40.065Z</time></trkpt><trkpt lat="45.8101067" lon="8.68627"><ele>270.5</ele><time>2026-04-26T10:04:41.065Z</time></trkpt><trkpt lat="45.8100383" lon="8.68631"><ele>270.0</ele><time>2026-04-26T10:04:42.065Z</time></trkpt><trkpt lat="45.8099767" lon="8.6863483"><ele>269.5</ele><time>2026-04-26T10:04:43.065Z</time></trkpt><trkpt lat="45.8098617" lon="8.68639"><ele>269.0</ele><time>2026-04-26T10:04:45.066Z</time></trkpt><trkpt lat="45.80976" lon="8.6863917"><ele>268.4</ele><time>2026-04-26T10:04:47.065Z</time></trkpt><trkpt lat="45.809685" lon="8.686315"><ele>267.79999999999995</ele><time>2026-04-26T10:04:49.065Z</time></trkpt><trkpt lat="45.8096017" lon="8.6862833"><ele>267.20000000000005</ele><time>2026-04-26T10:04:51.065Z</time></trkpt><trkpt lat="45.8095017" lon="8.68631"><ele>266.6</ele><time>2026-04-26T10:04:53.066Z</time></trkpt><trkpt lat="45.809385" lon="8.6863817"><ele>266.0</ele><time>2026-04-26T10:04:55.065Z</time></trkpt><trkpt lat="45.8093233" lon="8.6864183"><ele>265.83333333333337</ele><time>2026-04-26T10:04:56.065Z</time></trkpt><trkpt lat="45.80926" lon="8.6864483"><ele>265.6666666666667</ele><time>2026-04-26T10:04:57.065Z</time></trkpt><trkpt lat="45.8092" lon="8.68648"><ele>265.5</ele><time>2026-04-26T10:04:58.066Z</time></trkpt><trkpt lat="45.8090867" lon="8.6865333"><ele>265.3333333333333</ele><time>2026-04-26T10:05:00.065Z</time></trkpt><trkpt lat="45.80901" lon="8.6865867"><ele>265.16666666666663</ele><time>2026-04-26T10:05:02.065Z</time></trkpt><trkpt lat="45.8089817" lon="8.6866717"><ele>265.0</ele><time>2026-04-26T10:05:04.065Z</time></trkpt><trkpt lat="45.80898" lon="8.686835"><ele>264.8333333333333</ele><time>2026-04-26T10:05:06.065Z</time></trkpt><trkpt lat="45.8089917" lon="8.6869667"><ele>264.66666666666663</ele><time>2026-04-26T10:05:07.065Z</time></trkpt><trkpt lat="45.8089967" lon="8.6870683"><ele>264.5</ele><time>2026-04-26T10:05:08.065Z</time></trkpt><trkpt lat="45.8090067" lon="8.6871867"><ele>264.3333333333333</ele><time>2026-04-26T10:05:09.065Z</time></trkpt><trkpt lat="45.8090117" lon="8.6872867"><ele>264.1666666666667</ele><time>2026-04-26T10:05:10.065Z</time></trkpt><trkpt lat="45.809035" lon="8.6873783"><ele>264.0</ele><time>2026-04-26T10:05:11.065Z</time></trkpt><trkpt lat="45.8090517" lon="8.6874733"><ele>264.0</ele><time>2026-04-26T10:05:12.065Z</time></trkpt><trkpt lat="45.809075" lon="8.6875633"><ele>264.0</ele><time>2026-04-26T10:05:13.066Z</time></trkpt><trkpt lat="45.80911" lon="8.6877"><ele>264.0</ele><time>2026-04-26T10:05:15.065Z</time></trkpt><trkpt lat="45.8091533" lon="8.6878217"><ele>264.0</ele><time>2026-04-26T10:05:17.065Z</time></trkpt><trkpt lat="45.8091967" lon="8.6879383"><ele>264.0</ele><time>2026-04-26T10:05:19.065Z</time></trkpt><trkpt lat="45.8092183" lon="8.6880283"><ele>264.0</ele><time>2026-04-26T10:05:21.065Z</time></trkpt><trkpt lat="45.8092933" lon="8.6881433"><ele>262.6666666666667</ele><time>2026-04-26T10:05:28.065Z</time></trkpt><trkpt lat="45.809355" lon="8.68821"><ele>261.3333333333333</ele><time>2026-04-26T10:05:30.066Z</time></trkpt><trkpt lat="45.8094267" lon="8.6882833"><ele>260.0</ele><time>2026-04-26T10:05:32.065Z</time></trkpt><trkpt lat="45.8094917" lon="8.68837"><ele>258.66666666666663</ele><time>2026-04-26T10:05:34.065Z</time></trkpt><trkpt lat="45.8095083" lon="8.6884833"><ele>257.3333333333333</ele><time>2026-04-26T10:05:36.065Z</time></trkpt><trkpt lat="45.8095433" lon="8.6885867"><ele>256.0</ele><time>2026-04-26T10:05:38.065Z</time></trkpt><trkpt lat="45.80959" lon="8.6886733"><ele>254.99999999999997</ele><time>2026-04-26T10:05:40.065Z</time></trkpt><trkpt lat="45.8096267" lon="8.68877"><ele>254.0</ele><time>2026-04-26T10:05:42.065Z</time></trkpt><trkpt lat="45.80967" lon="8.6888617"><ele>253.0</ele><time>2026-04-26T10:05:44.065Z</time></trkpt><trkpt lat="45.8097233" lon="8.6889733"><ele>252.0</ele><time>2026-04-26T10:05:46.065Z</time></trkpt><trkpt lat="45.8097683" lon="8.689045"><ele>250.99999999999997</ele><time>2026-04-26T10:05:49.065Z</time></trkpt><trkpt lat="45.8098217" lon="8.68916"><ele>250.0</ele><time>2026-04-26T10:05:52.065Z</time></trkpt><trkpt lat="45.809855" lon="8.6892667"><ele>249.99999999999997</ele><time>2026-04-26T10:05:54.066Z</time></trkpt><trkpt lat="45.8098783" lon="8.6893733"><ele>250.0</ele><time>2026-04-26T10:05:56.065Z</time></trkpt><trkpt lat="45.809885" lon="8.6894833"><ele>250.0</ele><time>2026-04-26T10:05:58.065Z</time></trkpt><trkpt lat="45.80988" lon="8.68959"><ele>250.0</ele><time>2026-04-26T10:06:00.065Z</time></trkpt><trkpt lat="45.8098917" lon="8.6897133"><ele>249.99999999999997</ele><time>2026-04-26T10:06:03.066Z</time></trkpt><trkpt lat="45.809935" lon="8.68983"><ele>250.0</ele><time>2026-04-26T10:06:05.065Z</time></trkpt><trkpt lat="45.8100083" lon="8.68994"><ele>249.33333333333331</ele><time>2026-04-26T10:06:07.065Z</time></trkpt><trkpt lat="45.81006" lon="8.6900633"><ele>248.66666666666666</ele><time>2026-04-26T10:06:09.065Z</time></trkpt><trkpt lat="45.810075" lon="8.6901667"><ele>248.0</ele><time>2026-04-26T10:06:11.065Z</time></trkpt><trkpt lat="45.810075" lon="8.6902833"><ele>247.33333333333331</ele><time>2026-04-26T10:06:13.065Z</time></trkpt><trkpt lat="45.8100717" lon="8.6903967"><ele>246.66666666666666</ele><time>2026-04-26T10:06:15.065Z</time></trkpt><trkpt lat="45.8100733" lon="8.6905283"><ele>246.0</ele><time>2026-04-26T10:06:17.065Z</time></trkpt><trkpt lat="45.810085" lon="8.6906867"><ele>246.0</ele><time>2026-04-26T10:06:19.065Z</time></trkpt><trkpt lat="45.8101017" lon="8.6907817"><ele>246.0</ele><time>2026-04-26T10:06:21.065Z</time></trkpt><trkpt lat="45.8101517" lon="8.6908767"><ele>246.0</ele><time>2026-04-26T10:06:24.065Z</time></trkpt><trkpt lat="45.810195" lon="8.6909567"><ele>246.0</ele><time>2026-04-26T10:06:27.065Z</time></trkpt><trkpt lat="45.8102717" lon="8.6910033"><ele>246.0</ele><time>2026-04-26T10:06:30.065Z</time></trkpt><trkpt lat="45.8102117" lon="8.691075"><ele>246.0</ele><time>2026-04-26T10:06:46.066Z</time></trkpt><trkpt lat="45.81014" lon="8.6911083"><ele>246.0</ele><time>2026-04-26T10:06:48.065Z</time></trkpt><trkpt lat="45.8101017" lon="8.6912217"><ele>246.00000000000003</ele><time>2026-04-26T10:06:54.065Z</time></trkpt><trkpt lat="45.8101083" lon="8.691315"><ele>246.00000000000003</ele><time>2026-04-26T10:06:56.066Z</time></trkpt><trkpt lat="45.8100717" lon="8.691465"><ele>246.0</ele><time>2026-04-26T10:07:19.065Z</time></trkpt><trkpt lat="45.8099117" lon="8.6914717"><ele>246.0</ele><time>2026-04-26T10:07:45.065Z</time></trkpt><trkpt lat="45.80993" lon="8.6917183"><ele>246.0</ele><time>2026-04-26T10:08:39.064Z</time></trkpt><trkpt lat="45.80996" lon="8.6918467"><ele>246.00000000000003</ele><time>2026-04-26T10:09:37.064Z</time></trkpt><trkpt lat="45.8099467" lon="8.6919583"><ele>246.00000000000003</ele><time>2026-04-26T10:09:40.064Z</time></trkpt><trkpt lat="45.809905" lon="8.6920733"><ele>246.0</ele><time>2026-04-26T10:10:46.064Z</time></trkpt><trkpt lat="45.8098317" lon="8.6921483"><ele>246.0</ele><time>2026-04-26T10:10:49.064Z</time></trkpt><trkpt lat="45.8119883" lon="8.6922083"><ele>244.60000000000002</ele><time>2026-04-26T10:13:15.064Z</time></trkpt><trkpt lat="45.81204" lon="8.6921267"><ele>243.20000000000002</ele><time>2026-04-26T10:13:22.064Z</time></trkpt><trkpt lat="45.8121433" lon="8.69203"><ele>241.79999999999998</ele><time>2026-04-26T10:13:24.064Z</time></trkpt><trkpt lat="45.8122333" lon="8.6919583"><ele>240.39999999999998</ele><time>2026-04-26T10:13:26.064Z</time></trkpt><trkpt lat="45.8122833" lon="8.6918467"><ele>239.0</ele><time>2026-04-26T10:13:45.063Z</time></trkpt><trkpt lat="45.8122583" lon="8.69174"><ele>239.0</ele><time>2026-04-26T10:13:46.063Z</time></trkpt><trkpt lat="45.8122217" lon="8.6916267"><ele>238.99999999999997</ele><time>2026-04-26T10:13:47.063Z</time></trkpt><trkpt lat="45.8121767" lon="8.6915083"><ele>238.99999999999997</ele><time>2026-04-26T10:13:48.064Z</time></trkpt><trkpt lat="45.8121283" lon="8.6913967"><ele>239.0</ele><time>2026-04-26T10:13:49.063Z</time></trkpt><trkpt lat="45.8120633" lon="8.6913"><ele>239.0</ele><time>2026-04-26T10:13:50.063Z</time></trkpt><trkpt lat="45.8119817" lon="8.691205"><ele>239.00000000000003</ele><time>2026-04-26T10:13:51.064Z</time></trkpt><trkpt lat="45.8119133" lon="8.6911167"><ele>239.0</ele><time>2026-04-26T10:13:52.063Z</time></trkpt><trkpt lat="45.8118583" lon="8.6910383"><ele>239.0</ele><time>2026-04-26T10:13:53.064Z</time></trkpt><trkpt lat="45.81185" lon="8.6909033"><ele>239.0</ele><time>2026-04-26T10:13:55.063Z</time></trkpt><trkpt lat="45.81188" lon="8.6908167"><ele>239.00000000000003</ele><time>2026-04-26T10:13:56.063Z</time></trkpt><trkpt lat="45.8119183" lon="8.6907267"><ele>239.0</ele><time>2026-04-26T10:13:57.063Z</time></trkpt><trkpt lat="45.8119567" lon="8.69065"><ele>238.79999999999998</ele><time>2026-04-26T10:13:58.063Z</time></trkpt><trkpt lat="45.812035" lon="8.6905817"><ele>238.59999999999997</ele><time>2026-04-26T10:14:00.063Z</time></trkpt><trkpt lat="45.8121433" lon="8.6905683"><ele>238.4</ele><time>2026-04-26T10:14:02.063Z</time></trkpt><trkpt lat="45.8122267" lon="8.6905233"><ele>238.2</ele><time>2026-04-26T10:14:04.063Z</time></trkpt><trkpt lat="45.812275" lon="8.6904267"><ele>238.0</ele><time>2026-04-26T10:14:06.063Z</time></trkpt><trkpt lat="45.8122833" lon="8.69029"><ele>237.8</ele><time>2026-04-26T10:14:08.063Z</time></trkpt><trkpt lat="45.8122667" lon="8.6900967"><ele>237.60000000000002</ele><time>2026-04-26T10:14:10.063Z</time></trkpt><trkpt lat="45.8122483" lon="8.68999"><ele>237.39999999999998</ele><time>2026-04-26T10:14:11.063Z</time></trkpt><trkpt lat="45.81224" lon="8.68989"><ele>237.2</ele><time>2026-04-26T10:14:12.063Z</time></trkpt><trkpt lat="45.8122733" lon="8.6897083"><ele>237.0</ele><time>2026-04-26T10:14:14.063Z</time></trkpt><trkpt lat="45.8123" lon="8.6895767"><ele>237.0</ele><time>2026-04-26T10:14:15.064Z</time></trkpt><trkpt lat="45.81233" lon="8.6894417"><ele>237.0</ele><time>2026-04-26T10:14:16.063Z</time></trkpt><trkpt lat="45.8123633" lon="8.6893383"><ele>237.0</ele><time>2026-04-26T10:14:17.063Z</time></trkpt><trkpt lat="45.8123917" lon="8.6892367"><ele>237.0</ele><time>2026-04-26T10:14:18.063Z</time></trkpt><trkpt lat="45.8124" lon="8.68907"><ele>237.0</ele><time>2026-04-26T10:14:20.063Z</time></trkpt><trkpt lat="45.812405" lon="8.6889317"><ele>236.2</ele><time>2026-04-26T10:14:22.063Z</time></trkpt><trkpt lat="45.8124717" lon="8.6888117"><ele>235.39999999999998</ele><time>2026-04-26T10:14:24.063Z</time></trkpt><trkpt lat="45.8125583" lon="8.6887683"><ele>234.60000000000002</ele><time>2026-04-26T10:14:25.063Z</time></trkpt><trkpt lat="45.81265" lon="8.688725"><ele>233.8</ele><time>2026-04-26T10:14:26.064Z</time></trkpt><trkpt lat="45.8127333" lon="8.6886767"><ele>233.0</ele><time>2026-04-26T10:14:27.063Z</time></trkpt><trkpt lat="45.8128033" lon="8.688625"><ele>234.00000000000003</ele><time>2026-04-26T10:14:28.063Z</time></trkpt><trkpt lat="45.81286" lon="8.6885533"><ele>235.0</ele><time>2026-04-26T10:14:29.063Z</time></trkpt><trkpt lat="45.812915" lon="8.6884633"><ele>236.0</ele><time>2026-04-26T10:14:30.063Z</time></trkpt><trkpt lat="45.8129683" lon="8.6883667"><ele>237.0</ele><time>2026-04-26T10:14:31.063Z</time></trkpt><trkpt lat="45.81303" lon="8.6882733"><ele>238.00000000000003</ele><time>2026-04-26T10:14:32.063Z</time></trkpt><trkpt lat="45.813105" lon="8.688185"><ele>239.0</ele><time>2026-04-26T10:14:33.063Z</time></trkpt><trkpt lat="45.81317" lon="8.6881133"><ele>239.00000000000003</ele><time>2026-04-26T10:14:34.063Z</time></trkpt><trkpt lat="45.813245" lon="8.6880533"><ele>239.0</ele><time>2026-04-26T10:14:35.063Z</time></trkpt><trkpt lat="45.8133483" lon="8.68801"><ele>239.0</ele><time>2026-04-26T10:14:37.063Z</time></trkpt><trkpt lat="45.8134183" lon="8.6879883"><ele>239.0</ele><time>2026-04-26T10:14:39.063Z</time></trkpt><trkpt lat="45.8134667" lon="8.6879017"><ele>239.00000000000003</ele><time>2026-04-26T10:14:43.063Z</time></trkpt><trkpt lat="45.8135267" lon="8.6878267"><ele>239.0</ele><time>2026-04-26T10:14:45.063Z</time></trkpt><trkpt lat="45.8136233" lon="8.6877067"><ele>238.66666666666669</ele><time>2026-04-26T10:14:47.063Z</time></trkpt><trkpt lat="45.81367" lon="8.6876367"><ele>238.33333333333334</ele><time>2026-04-26T10:14:48.063Z</time></trkpt><trkpt lat="45.8137433" lon="8.687535"><ele>238.0</ele><time>2026-04-26T10:14:50.063Z</time></trkpt><trkpt lat="45.8137733" lon="8.68742"><ele>237.66666666666669</ele><time>2026-04-26T10:14:52.063Z</time></trkpt><trkpt lat="45.81381" lon="8.6873067"><ele>237.33333333333334</ele><time>2026-04-26T10:14:54.063Z</time></trkpt><trkpt lat="45.81385" lon="8.68723"><ele>237.0</ele><time>2026-04-26T10:14:55.063Z</time></trkpt><trkpt lat="45.8139017" lon="8.687145"><ele>237.0</ele><time>2026-04-26T10:14:56.063Z</time></trkpt><trkpt lat="45.813955" lon="8.68706"><ele>237.0</ele><time>2026-04-26T10:14:57.063Z</time></trkpt><trkpt lat="45.8140083" lon="8.6869867"><ele>237.0</ele><time>2026-04-26T10:14:58.063Z</time></trkpt><trkpt lat="45.8140583" lon="8.68693"><ele>237.0</ele><time>2026-04-26T10:14:59.063Z</time></trkpt><trkpt lat="45.81414" lon="8.6868333"><ele>237.0</ele><time>2026-04-26T10:15:01.063Z</time></trkpt><trkpt lat="45.8141917" lon="8.6867683"><ele>237.0</ele><time>2026-04-26T10:15:03.063Z</time></trkpt><trkpt lat="45.8142783" lon="8.6867833"><ele>236.8</ele><time>2026-04-26T10:15:07.064Z</time></trkpt><trkpt lat="45.814375" lon="8.6868567"><ele>236.6</ele><time>2026-04-26T10:15:09.063Z</time></trkpt><trkpt lat="45.8144433" lon="8.686915"><ele>236.40000000000003</ele><time>2026-04-26T10:15:10.063Z</time></trkpt><trkpt lat="45.814515" lon="8.6869967"><ele>236.20000000000002</ele><time>2026-04-26T10:15:11.063Z</time></trkpt><trkpt lat="45.8145917" lon="8.6870683"><ele>236.0</ele><time>2026-04-26T10:15:12.063Z</time></trkpt><trkpt lat="45.814655" lon="8.6871333"><ele>236.00000000000003</ele><time>2026-04-26T10:15:13.063Z</time></trkpt><trkpt lat="45.8147483" lon="8.6872167"><ele>236.0</ele><time>2026-04-26T10:15:15.063Z</time></trkpt><trkpt lat="45.81481" lon="8.687265"><ele>236.0</ele><time>2026-04-26T10:15:17.063Z</time></trkpt><trkpt lat="45.8148733" lon="8.6872933"><ele>236.0</ele><time>2026-04-26T10:15:19.063Z</time></trkpt><trkpt lat="45.8149433" lon="8.6873333"><ele>236.00000000000003</ele><time>2026-04-26T10:15:21.063Z</time></trkpt><trkpt lat="45.81502" lon="8.687415"><ele>236.0</ele><time>2026-04-26T10:15:23.063Z</time></trkpt><trkpt lat="45.8150817" lon="8.6874783"><ele>236.0</ele><time>2026-04-26T10:15:24.064Z</time></trkpt><trkpt lat="45.8151483" lon="8.6875367"><ele>236.00000000000003</ele><time>2026-04-26T10:15:25.063Z</time></trkpt><trkpt lat="45.8152083" lon="8.6875867"><ele>236.00000000000003</ele><time>2026-04-26T10:15:26.063Z</time></trkpt><trkpt lat="45.8153133" lon="8.6876383"><ele>236.0</ele><time>2026-04-26T10:15:28.063Z</time></trkpt><trkpt lat="45.8154417" lon="8.687605"><ele>236.0</ele><time>2026-04-26T10:15:30.063Z</time></trkpt><trkpt lat="45.8155333" lon="8.6875233"><ele>236.0</ele><time>2026-04-26T10:15:31.063Z</time></trkpt><trkpt lat="45.8156183" lon="8.687435"><ele>236.00000000000003</ele><time>2026-04-26T10:15:32.063Z</time></trkpt><trkpt lat="45.8156983" lon="8.6873467"><ele>236.00000000000003</ele><time>2026-04-26T10:15:33.063Z</time></trkpt><trkpt lat="45.81578" lon="8.687265"><ele>236.0</ele><time>2026-04-26T10:15:34.063Z</time></trkpt><trkpt lat="45.8158683" lon="8.6871783"><ele>236.0</ele><time>2026-04-26T10:15:35.063Z</time></trkpt><trkpt lat="45.8159617" lon="8.6870917"><ele>235.75</ele><time>2026-04-26T10:15:36.063Z</time></trkpt><trkpt lat="45.81606" lon="8.6869883"><ele>235.5</ele><time>2026-04-26T10:15:37.063Z</time></trkpt><trkpt lat="45.8161567" lon="8.686905"><ele>235.25</ele><time>2026-04-26T10:15:38.063Z</time></trkpt><trkpt lat="45.8162517" lon="8.6868217"><ele>235.0</ele><time>2026-04-26T10:15:39.063Z</time></trkpt><trkpt lat="45.8163433" lon="8.6867383"><ele>234.99999999999997</ele><time>2026-04-26T10:15:40.063Z</time></trkpt><trkpt lat="45.8164317" lon="8.68667"><ele>235.0</ele><time>2026-04-26T10:15:41.063Z</time></trkpt><trkpt lat="45.8165133" lon="8.6866133"><ele>235.0</ele><time>2026-04-26T10:15:42.063Z</time></trkpt><trkpt lat="45.8165883" lon="8.6865667"><ele>235.0</ele><time>2026-04-26T10:15:43.063Z</time></trkpt><trkpt lat="45.8166483" lon="8.686535"><ele>234.99999999999997</ele><time>2026-04-26T10:15:44.063Z</time></trkpt><trkpt lat="45.8167433" lon="8.686505"><ele>235.0</ele><time>2026-04-26T10:15:46.063Z</time></trkpt><trkpt lat="45.8168133" lon="8.6864733"><ele>234.8</ele><time>2026-04-26T10:15:54.063Z</time></trkpt><trkpt lat="45.81689" lon="8.6865033"><ele>234.6</ele><time>2026-04-26T10:15:56.063Z</time></trkpt><trkpt lat="45.8169817" lon="8.6865883"><ele>234.39999999999998</ele><time>2026-04-26T10:15:58.064Z</time></trkpt><trkpt lat="45.81708" lon="8.6866767"><ele>234.2</ele><time>2026-04-26T10:16:00.063Z</time></trkpt><trkpt lat="45.81718" lon="8.6867367"><ele>234.0</ele><time>2026-04-26T10:16:02.063Z</time></trkpt><trkpt lat="45.8172583" lon="8.6867567"><ele>234.0</ele><time>2026-04-26T10:16:04.063Z</time></trkpt><trkpt lat="45.8173317" lon="8.6867483"><ele>234.0</ele><time>2026-04-26T10:16:06.063Z</time></trkpt><trkpt lat="45.8173983" lon="8.686755"><ele>234.0</ele><time>2026-04-26T10:16:08.064Z</time></trkpt><trkpt lat="45.817465" lon="8.6867883"><ele>234.0</ele><time>2026-04-26T10:16:11.063Z</time></trkpt><trkpt lat="45.8175483" lon="8.68686"><ele>234.0</ele><time>2026-04-26T10:16:13.063Z</time></trkpt><trkpt lat="45.8176233" lon="8.6869867"><ele>234.0</ele><time>2026-04-26T10:16:15.063Z</time></trkpt><trkpt lat="45.8176633" lon="8.6870667"><ele>234.16666666666666</ele><time>2026-04-26T10:16:16.063Z</time></trkpt><trkpt lat="45.8177017" lon="8.68715"><ele>234.33333333333331</ele><time>2026-04-26T10:16:17.063Z</time></trkpt><trkpt lat="45.817745" lon="8.6872333"><ele>234.5</ele><time>2026-04-26T10:16:18.063Z</time></trkpt><trkpt lat="45.8178133" lon="8.6873217"><ele>234.66666666666666</ele><time>2026-04-26T10:16:19.063Z</time></trkpt><trkpt lat="45.81789" lon="8.687385"><ele>234.83333333333331</ele><time>2026-04-26T10:16:20.063Z</time></trkpt><trkpt lat="45.8179733" lon="8.6874267"><ele>235.0</ele><time>2026-04-26T10:16:21.064Z</time></trkpt><trkpt lat="45.8180567" lon="8.6874433"><ele>235.0</ele><time>2026-04-26T10:16:22.063Z</time></trkpt><trkpt lat="45.818155" lon="8.687445"><ele>235.0</ele><time>2026-04-26T10:16:23.063Z</time></trkpt><trkpt lat="45.818265" lon="8.6874217"><ele>235.0</ele><time>2026-04-26T10:16:24.063Z</time></trkpt><trkpt lat="45.8183883" lon="8.68738"><ele>235.0</ele><time>2026-04-26T10:16:25.063Z</time></trkpt><trkpt lat="45.8185167" lon="8.687355"><ele>236.8</ele><time>2026-04-26T10:16:26.063Z</time></trkpt><trkpt lat="45.818625" lon="8.6873433"><ele>238.6</ele><time>2026-04-26T10:16:27.063Z</time></trkpt><trkpt lat="45.8187133" lon="8.6873383"><ele>240.39999999999998</ele><time>2026-04-26T10:16:28.063Z</time></trkpt><trkpt lat="45.818815" lon="8.6873717"><ele>242.2</ele><time>2026-04-26T10:16:30.063Z</time></trkpt><trkpt lat="45.8188667" lon="8.6874633"><ele>244.0</ele><time>2026-04-26T10:16:34.063Z</time></trkpt><trkpt lat="45.8189483" lon="8.6875833"><ele>244.0</ele><time>2026-04-26T10:16:37.063Z</time></trkpt><trkpt lat="45.8190067" lon="8.687665"><ele>243.99999999999997</ele><time>2026-04-26T10:16:38.063Z</time></trkpt><trkpt lat="45.8190917" lon="8.68779"><ele>243.99999999999997</ele><time>2026-04-26T10:16:39.063Z</time></trkpt><trkpt lat="45.8191467" lon="8.6879333"><ele>244.0</ele><time>2026-04-26T10:16:40.063Z</time></trkpt><trkpt lat="45.8191717" lon="8.6881183"><ele>244.0</ele><time>2026-04-26T10:16:41.063Z</time></trkpt><trkpt lat="45.8192033" lon="8.6883067"><ele>244.5</ele><time>2026-04-26T10:16:42.063Z</time></trkpt><trkpt lat="45.8192317" lon="8.6885033"><ele>245.0</ele><time>2026-04-26T10:16:43.063Z</time></trkpt><trkpt lat="45.8192683" lon="8.6886917"><ele>245.5</ele><time>2026-04-26T10:16:44.063Z</time></trkpt><trkpt lat="45.81931" lon="8.6889067"><ele>246.0</ele><time>2026-04-26T10:16:45.063Z</time></trkpt><trkpt lat="45.819355" lon="8.6890917"><ele>246.75</ele><time>2026-04-26T10:16:46.063Z</time></trkpt><trkpt lat="45.8194017" lon="8.6892633"><ele>247.5</ele><time>2026-04-26T10:16:47.063Z</time></trkpt><trkpt lat="45.8194317" lon="8.6894267"><ele>248.25</ele><time>2026-04-26T10:16:48.063Z</time></trkpt><trkpt lat="45.81947" lon="8.689595"><ele>249.0</ele><time>2026-04-26T10:16:49.063Z</time></trkpt><trkpt lat="45.8195083" lon="8.6897533"><ele>249.0</ele><time>2026-04-26T10:16:50.063Z</time></trkpt><trkpt lat="45.8195317" lon="8.6899217"><ele>248.99999999999997</ele><time>2026-04-26T10:16:51.063Z</time></trkpt><trkpt lat="45.819545" lon="8.6900867"><ele>248.99999999999997</ele><time>2026-04-26T10:16:52.063Z</time></trkpt><trkpt lat="45.8195467" lon="8.6902317"><ele>249.0</ele><time>2026-04-26T10:16:53.063Z</time></trkpt><trkpt lat="45.8195583" lon="8.69035"><ele>249.0</ele><time>2026-04-26T10:16:54.063Z</time></trkpt><trkpt lat="45.81956" lon="8.69045"><ele>247.39999999999998</ele><time>2026-04-26T10:16:55.063Z</time></trkpt><trkpt lat="45.81958" lon="8.6905417"><ele>245.79999999999998</ele><time>2026-04-26T10:16:56.063Z</time></trkpt><trkpt lat="45.8196333" lon="8.69062"><ele>244.20000000000002</ele><time>2026-04-26T10:16:57.063Z</time></trkpt><trkpt lat="45.81975" lon="8.690695"><ele>242.60000000000002</ele><time>2026-04-26T10:16:58.063Z</time></trkpt><trkpt lat="45.8198717" lon="8.6907983"><ele>241.0</ele><time>2026-04-26T10:16:59.063Z</time></trkpt><trkpt lat="45.82" lon="8.6908967"><ele>244.66666666666666</ele><time>2026-04-26T10:17:00.063Z</time></trkpt><trkpt lat="45.82015" lon="8.69099"><ele>248.33333333333331</ele><time>2026-04-26T10:17:01.063Z</time></trkpt><trkpt lat="45.8202917" lon="8.6910717"><ele>252.0</ele><time>2026-04-26T10:17:02.063Z</time></trkpt><trkpt lat="45.8204483" lon="8.6911683"><ele>252.0</ele><time>2026-04-26T10:17:03.063Z</time></trkpt><trkpt lat="45.82062" lon="8.6912517"><ele>252.0</ele><time>2026-04-26T10:17:04.063Z</time></trkpt><trkpt lat="45.82078" lon="8.69133"><ele>252.0</ele><time>2026-04-26T10:17:05.063Z</time></trkpt><trkpt lat="45.82093" lon="8.6914067"><ele>254.2</ele><time>2026-04-26T10:17:06.063Z</time></trkpt><trkpt lat="45.8210517" lon="8.6914483"><ele>256.4</ele><time>2026-04-26T10:17:07.064Z</time></trkpt><trkpt lat="45.8211433" lon="8.6914817"><ele>258.6</ele><time>2026-04-26T10:17:08.063Z</time></trkpt><trkpt lat="45.8212083" lon="8.6915283"><ele>260.8</ele><time>2026-04-26T10:17:09.063Z</time></trkpt><trkpt lat="45.8212733" lon="8.6916417"><ele>263.0</ele><time>2026-04-26T10:17:11.063Z</time></trkpt><trkpt lat="45.82126" lon="8.6918083"><ele>263.0</ele><time>2026-04-26T10:17:13.064Z</time></trkpt><trkpt lat="45.821225" lon="8.6919"><ele>263.0</ele><time>2026-04-26T10:17:14.063Z</time></trkpt><trkpt lat="45.8211933" lon="8.6919883"><ele>263.0</ele><time>2026-04-26T10:17:15.063Z</time></trkpt><trkpt lat="45.8212017" lon="8.6920867"><ele>263.0</ele><time>2026-04-26T10:17:17.063Z</time></trkpt><trkpt lat="45.821295" lon="8.6920167"><ele>263.0</ele><time>2026-04-26T10:17:19.063Z</time></trkpt><trkpt lat="45.8213567" lon="8.6919433"><ele>263.0</ele><time>2026-04-26T10:17:20.063Z</time></trkpt><trkpt lat="45.8214133" lon="8.6918483"><ele>263.0</ele><time>2026-04-26T10:17:21.063Z</time></trkpt><trkpt lat="45.82149" lon="8.69173"><ele>263.0</ele><time>2026-04-26T10:17:22.063Z</time></trkpt><trkpt lat="45.821565" lon="8.6915967"><ele>263.0</ele><time>2026-04-26T10:17:23.063Z</time></trkpt><trkpt lat="45.8216283" lon="8.6914833"><ele>263.0</ele><time>2026-04-26T10:17:24.064Z</time></trkpt><trkpt lat="45.821685" lon="8.6913983"><ele>263.0</ele><time>2026-04-26T10:17:25.063Z</time></trkpt><trkpt lat="45.8217467" lon="8.6913267"><ele>263.0</ele><time>2026-04-26T10:17:26.063Z</time></trkpt><trkpt lat="45.82181" lon="8.6912883"><ele>263.0</ele><time>2026-04-26T10:17:27.063Z</time></trkpt><trkpt lat="45.82187" lon="8.6912567"><ele>263.0</ele><time>2026-04-26T10:17:28.063Z</time></trkpt><trkpt lat="45.821955" lon="8.69125"><ele>263.0</ele><time>2026-04-26T10:17:30.063Z</time></trkpt><trkpt lat="45.8220333" lon="8.6913067"><ele>263.0</ele><time>2026-04-26T10:17:32.063Z</time></trkpt><trkpt lat="45.8221117" lon="8.6913567"><ele>263.0</ele><time>2026-04-26T10:17:34.063Z</time></trkpt><trkpt lat="45.82221" lon="8.69141"><ele>264.1666666666667</ele><time>2026-04-26T10:17:46.063Z</time></trkpt><trkpt lat="45.8222717" lon="8.6914567"><ele>265.33333333333337</ele><time>2026-04-26T10:17:48.063Z</time></trkpt><trkpt lat="45.8223517" lon="8.6915"><ele>266.5</ele><time>2026-04-26T10:17:50.063Z</time></trkpt><trkpt lat="45.8224167" lon="8.6915417"><ele>267.6666666666667</ele><time>2026-04-26T10:17:51.063Z</time></trkpt><trkpt lat="45.822505" lon="8.691595"><ele>268.8333333333333</ele><time>2026-04-26T10:17:52.064Z</time></trkpt><trkpt lat="45.8226" lon="8.6916417"><ele>270.0</ele><time>2026-04-26T10:17:53.063Z</time></trkpt><trkpt lat="45.8226933" lon="8.6916733"><ele>271.6</ele><time>2026-04-26T10:17:54.063Z</time></trkpt><trkpt lat="45.8227967" lon="8.6916967"><ele>273.2</ele><time>2026-04-26T10:17:55.063Z</time></trkpt><trkpt lat="45.8229033" lon="8.691705"><ele>274.8</ele><time>2026-04-26T10:17:56.063Z</time></trkpt><trkpt lat="45.8230117" lon="8.691715"><ele>276.4</ele><time>2026-04-26T10:17:57.063Z</time></trkpt><trkpt lat="45.82312" lon="8.691725"><ele>278.0</ele><time>2026-04-26T10:17:58.063Z</time></trkpt><trkpt lat="45.8232317" lon="8.6917267"><ele>278.0</ele><time>2026-04-26T10:17:59.063Z</time></trkpt><trkpt lat="45.8233417" lon="8.691735"><ele>278.0</ele><time>2026-04-26T10:18:00.063Z</time></trkpt><trkpt lat="45.8234333" lon="8.6917717"><ele>278.0</ele><time>2026-04-26T10:18:01.063Z</time></trkpt><trkpt lat="45.8235083" lon="8.69184"><ele>278.0</ele><time>2026-04-26T10:18:02.063Z</time></trkpt><trkpt lat="45.8235733" lon="8.6919417"><ele>278.0</ele><time>2026-04-26T10:18:03.063Z</time></trkpt><trkpt lat="45.8236483" lon="8.6920367"><ele>280.4</ele><time>2026-04-26T10:18:04.063Z</time></trkpt><trkpt lat="45.8237233" lon="8.692135"><ele>282.8</ele><time>2026-04-26T10:18:05.063Z</time></trkpt><trkpt lat="45.8238083" lon="8.6922133"><ele>285.2</ele><time>2026-04-26T10:18:06.063Z</time></trkpt><trkpt lat="45.823895" lon="8.6922867"><ele>287.6</ele><time>2026-04-26T10:18:07.063Z</time></trkpt><trkpt lat="45.8239767" lon="8.6923617"><ele>290.0</ele><time>2026-04-26T10:18:08.063Z</time></trkpt><trkpt lat="45.8240383" lon="8.6924283"><ele>290.0</ele><time>2026-04-26T10:18:09.063Z</time></trkpt><trkpt lat="45.8241283" lon="8.6925217"><ele>290.0</ele><time>2026-04-26T10:18:11.063Z</time></trkpt><trkpt lat="45.8242" lon="8.6925517"><ele>290.0</ele><time>2026-04-26T10:18:14.063Z</time></trkpt><trkpt lat="45.8242883" lon="8.692475"><ele>290.0</ele><time>2026-04-26T10:18:16.063Z</time></trkpt><trkpt lat="45.8243483" lon="8.6923733"><ele>290.0</ele><time>2026-04-26T10:18:17.063Z</time></trkpt><trkpt lat="45.82441" lon="8.6922467"><ele>290.6</ele><time>2026-04-26T10:18:18.064Z</time></trkpt><trkpt lat="45.8244783" lon="8.692105"><ele>291.2</ele><time>2026-04-26T10:18:19.063Z</time></trkpt><trkpt lat="45.824545" lon="8.6919783"><ele>291.8</ele><time>2026-04-26T10:18:20.063Z</time></trkpt><trkpt lat="45.8246133" lon="8.6918883"><ele>292.4</ele><time>2026-04-26T10:18:21.063Z</time></trkpt><trkpt lat="45.82468" lon="8.6918"><ele>293.0</ele><time>2026-04-26T10:18:22.063Z</time></trkpt><trkpt lat="45.8247467" lon="8.6917067"><ele>293.4</ele><time>2026-04-26T10:18:23.063Z</time></trkpt><trkpt lat="45.824805" lon="8.6915983"><ele>293.8</ele><time>2026-04-26T10:18:24.063Z</time></trkpt><trkpt lat="45.82486" lon="8.6914817"><ele>294.2</ele><time>2026-04-26T10:18:25.063Z</time></trkpt><trkpt lat="45.8249067" lon="8.6913567"><ele>294.6</ele><time>2026-04-26T10:18:26.063Z</time></trkpt><trkpt lat="45.8249433" lon="8.6912167"><ele>295.0</ele><time>2026-04-26T10:18:27.064Z</time></trkpt><trkpt lat="45.8249817" lon="8.6910833"><ele>295.0</ele><time>2026-04-26T10:18:28.063Z</time></trkpt><trkpt lat="45.8250267" lon="8.6909367"><ele>295.0</ele><time>2026-04-26T10:18:29.063Z</time></trkpt><trkpt lat="45.8250817" lon="8.6907883"><ele>295.0</ele><time>2026-04-26T10:18:30.063Z</time></trkpt><trkpt lat="45.8251317" lon="8.6906433"><ele>295.0</ele><time>2026-04-26T10:18:31.063Z</time></trkpt><trkpt lat="45.8251833" lon="8.6905267"><ele>295.0</ele><time>2026-04-26T10:18:32.064Z</time></trkpt><trkpt lat="45.8252283" lon="8.690425"><ele>295.2</ele><time>2026-04-26T10:18:33.063Z</time></trkpt><trkpt lat="45.82526" lon="8.6903383"><ele>295.4</ele><time>2026-04-26T10:18:34.063Z</time></trkpt><trkpt lat="45.8253283" lon="8.69022"><ele>295.6</ele><time>2026-04-26T10:18:36.064Z</time></trkpt><trkpt lat="45.8254433" lon="8.69018"><ele>295.8</ele><time>2026-04-26T10:18:38.063Z</time></trkpt><trkpt lat="45.8255183" lon="8.69021"><ele>296.0</ele><time>2026-04-26T10:18:39.063Z</time></trkpt><trkpt lat="45.8255833" lon="8.6902733"><ele>295.25</ele><time>2026-04-26T10:18:40.063Z</time></trkpt><trkpt lat="45.825645" lon="8.69035"><ele>294.5</ele><time>2026-04-26T10:18:41.063Z</time></trkpt><trkpt lat="45.8257367" lon="8.6905917"><ele>293.75</ele><time>2026-04-26T10:18:43.063Z</time></trkpt><trkpt lat="45.8257683" lon="8.6907417"><ele>293.0</ele><time>2026-04-26T10:18:44.063Z</time></trkpt><trkpt lat="45.8257917" lon="8.6908817"><ele>293.0</ele><time>2026-04-26T10:18:45.063Z</time></trkpt><trkpt lat="45.8257983" lon="8.6910133"><ele>293.0</ele><time>2026-04-26T10:18:46.063Z</time></trkpt><trkpt lat="45.82579" lon="8.6911483"><ele>293.0</ele><time>2026-04-26T10:18:47.063Z</time></trkpt><trkpt lat="45.8257683" lon="8.691295"><ele>293.0</ele><time>2026-04-26T10:18:48.063Z</time></trkpt><trkpt lat="45.8257433" lon="8.6914567"><ele>293.0</ele><time>2026-04-26T10:18:49.063Z</time></trkpt><trkpt lat="45.8257233" lon="8.6916317"><ele>292.5</ele><time>2026-04-26T10:18:50.063Z</time></trkpt><trkpt lat="45.8257167" lon="8.691815"><ele>292.0</ele><time>2026-04-26T10:18:51.063Z</time></trkpt><trkpt lat="45.8257233" lon="8.6919883"><ele>291.5</ele><time>2026-04-26T10:18:52.063Z</time></trkpt><trkpt lat="45.8257333" lon="8.6921517"><ele>291.0</ele><time>2026-04-26T10:18:53.063Z</time></trkpt><trkpt lat="45.8257367" lon="8.692315"><ele>291.0</ele><time>2026-04-26T10:18:54.063Z</time></trkpt><trkpt lat="45.8257383" lon="8.6924733"><ele>291.0</ele><time>2026-04-26T10:18:55.063Z</time></trkpt><trkpt lat="45.82574" lon="8.6926283"><ele>291.0</ele><time>2026-04-26T10:18:56.063Z</time></trkpt><trkpt lat="45.8257333" lon="8.6927767"><ele>291.0</ele><time>2026-04-26T10:18:57.063Z</time></trkpt><trkpt lat="45.8257233" lon="8.69293"><ele>291.0</ele><time>2026-04-26T10:18:58.063Z</time></trkpt><trkpt lat="45.8257033" lon="8.6930767"><ele>289.3333333333333</ele><time>2026-04-26T10:18:59.063Z</time></trkpt><trkpt lat="45.825685" lon="8.6932217"><ele>287.6666666666667</ele><time>2026-04-26T10:19:00.063Z</time></trkpt><trkpt lat="45.82567" lon="8.6933583"><ele>286.0</ele><time>2026-04-26T10:19:01.063Z</time></trkpt><trkpt lat="45.8256567" lon="8.6934833"><ele>284.33333333333337</ele><time>2026-04-26T10:19:02.063Z</time></trkpt><trkpt lat="45.825665" lon="8.693585"><ele>282.6666666666667</ele><time>2026-04-26T10:19:03.063Z</time></trkpt><trkpt lat="45.8256967" lon="8.69367"><ele>281.0</ele><time>2026-04-26T10:19:04.063Z</time></trkpt><trkpt lat="45.8257667" lon="8.69373"><ele>278.25</ele><time>2026-04-26T10:19:05.063Z</time></trkpt><trkpt lat="45.8258583" lon="8.6937617"><ele>275.5</ele><time>2026-04-26T10:19:06.063Z</time></trkpt><trkpt lat="45.825995" lon="8.69375"><ele>272.75</ele><time>2026-04-26T10:19:07.063Z</time></trkpt><trkpt lat="45.8261883" lon="8.6936933"><ele>270.0</ele><time>2026-04-26T10:19:08.063Z</time></trkpt><trkpt lat="45.8263717" lon="8.6936667"><ele>268.3333333333333</ele><time>2026-04-26T10:19:09.064Z</time></trkpt><trkpt lat="45.82656" lon="8.6936333"><ele>266.66666666666663</ele><time>2026-04-26T10:19:10.063Z</time></trkpt><trkpt lat="45.8267383" lon="8.6936167"><ele>265.0</ele><time>2026-04-26T10:19:11.063Z</time></trkpt><trkpt lat="45.8269117" lon="8.6936117"><ele>262.3333333333333</ele><time>2026-04-26T10:19:12.063Z</time></trkpt><trkpt lat="45.8270767" lon="8.69361"><ele>259.6666666666667</ele><time>2026-04-26T10:19:13.063Z</time></trkpt><trkpt lat="45.8272417" lon="8.6936183"><ele>257.0</ele><time>2026-04-26T10:19:14.063Z</time></trkpt><trkpt lat="45.82741" lon="8.6936317"><ele>257.0</ele><time>2026-04-26T10:19:15.063Z</time></trkpt><trkpt lat="45.827585" lon="8.6936567"><ele>257.0</ele><time>2026-04-26T10:19:16.063Z</time></trkpt><trkpt lat="45.82776" lon="8.6936783"><ele>257.0</ele><time>2026-04-26T10:19:17.063Z</time></trkpt><trkpt lat="45.827925" lon="8.6936917"><ele>256.0</ele><time>2026-04-26T10:19:18.063Z</time></trkpt><trkpt lat="45.8280767" lon="8.6936983"><ele>255.0</ele><time>2026-04-26T10:19:19.063Z</time></trkpt><trkpt lat="45.82822" lon="8.693685"><ele>254.0</ele><time>2026-04-26T10:19:20.063Z</time></trkpt><trkpt lat="45.8283667" lon="8.6936533"><ele>253.0</ele><time>2026-04-26T10:19:21.063Z</time></trkpt><trkpt lat="45.828515" lon="8.6936083"><ele>253.0</ele><time>2026-04-26T10:19:22.063Z</time></trkpt><trkpt lat="45.8286617" lon="8.6936"><ele>253.0</ele><time>2026-04-26T10:19:23.063Z</time></trkpt><trkpt lat="45.8288067" lon="8.6936317"><ele>253.0</ele><time>2026-04-26T10:19:24.063Z</time></trkpt><trkpt lat="45.82896" lon="8.6936883"><ele>253.0</ele><time>2026-04-26T10:19:25.064Z</time></trkpt><trkpt lat="45.8291033" lon="8.6937383"><ele>253.0</ele><time>2026-04-26T10:19:26.063Z</time></trkpt><trkpt lat="45.8292367" lon="8.6937967"><ele>253.0</ele><time>2026-04-26T10:19:27.063Z</time></trkpt><trkpt lat="45.8293483" lon="8.6938867"><ele>253.0</ele><time>2026-04-26T10:19:28.063Z</time></trkpt><trkpt lat="45.8294467" lon="8.6940183"><ele>253.25</ele><time>2026-04-26T10:19:29.063Z</time></trkpt><trkpt lat="45.8295367" lon="8.6941583"><ele>253.5</ele><time>2026-04-26T10:19:30.063Z</time></trkpt><trkpt lat="45.8296133" lon="8.6943133"><ele>253.75</ele><time>2026-04-26T10:19:31.063Z</time></trkpt><trkpt lat="45.8296733" lon="8.69449"><ele>254.0</ele><time>2026-04-26T10:19:32.063Z</time></trkpt><trkpt lat="45.8297283" lon="8.694675"><ele>253.0</ele><time>2026-04-26T10:19:33.063Z</time></trkpt><trkpt lat="45.8297867" lon="8.69487"><ele>252.0</ele><time>2026-04-26T10:19:34.063Z</time></trkpt><trkpt lat="45.8298567" lon="8.69505"><ele>251.0</ele><time>2026-04-26T10:19:35.062Z</time></trkpt><trkpt lat="45.8299383" lon="8.6952283"><ele>250.0</ele><time>2026-04-26T10:19:36.062Z</time></trkpt><trkpt lat="45.8300067" lon="8.69539"><ele>250.25</ele><time>2026-04-26T10:19:37.062Z</time></trkpt><trkpt lat="45.8300967" lon="8.69554"><ele>250.5</ele><time>2026-04-26T10:19:38.062Z</time></trkpt><trkpt lat="45.8301967" lon="8.6956817"><ele>250.75</ele><time>2026-04-26T10:19:39.062Z</time></trkpt><trkpt lat="45.8303083" lon="8.6958183"><ele>251.0</ele><time>2026-04-26T10:19:40.062Z</time></trkpt><trkpt lat="45.8304167" lon="8.69594"><ele>251.0</ele><time>2026-04-26T10:19:41.062Z</time></trkpt><trkpt lat="45.8305317" lon="8.69606"><ele>251.0</ele><time>2026-04-26T10:19:42.063Z</time></trkpt><trkpt lat="45.8306417" lon="8.6961767"><ele>251.0</ele><time>2026-04-26T10:19:43.062Z</time></trkpt><trkpt lat="45.8307483" lon="8.69628"><ele>251.0</ele><time>2026-04-26T10:19:44.062Z</time></trkpt><trkpt lat="45.830855" lon="8.6963633"><ele>251.0</ele><time>2026-04-26T10:19:45.062Z</time></trkpt><trkpt lat="45.8309617" lon="8.69644"><ele>251.0</ele><time>2026-04-26T10:19:46.062Z</time></trkpt><trkpt lat="45.83108" lon="8.6964983"><ele>251.0</ele><time>2026-04-26T10:19:47.062Z</time></trkpt><trkpt lat="45.831205" lon="8.6965433"><ele>251.0</ele><time>2026-04-26T10:19:48.062Z</time></trkpt><trkpt lat="45.8313267" lon="8.696565"><ele>251.0</ele><time>2026-04-26T10:19:49.062Z</time></trkpt><trkpt lat="45.8314617" lon="8.696565"><ele>251.0</ele><time>2026-04-26T10:19:50.062Z</time></trkpt><trkpt lat="45.8315967" lon="8.69656"><ele>251.0</ele><time>2026-04-26T10:19:51.062Z</time></trkpt><trkpt lat="45.83174" lon="8.69658"><ele>251.0</ele><time>2026-04-26T10:19:52.062Z</time></trkpt><trkpt lat="45.83187" lon="8.6966133"><ele>251.75</ele><time>2026-04-26T10:19:53.062Z</time></trkpt><trkpt lat="45.8319983" lon="8.6966683"><ele>252.5</ele><time>2026-04-26T10:19:54.062Z</time></trkpt><trkpt lat="45.832105" lon="8.6967367"><ele>253.25</ele><time>2026-04-26T10:19:55.062Z</time></trkpt><trkpt lat="45.8322133" lon="8.6967717"><ele>254.0</ele><time>2026-04-26T10:19:56.062Z</time></trkpt><trkpt lat="45.8323233" lon="8.696775"><ele>254.0</ele><time>2026-04-26T10:19:57.062Z</time></trkpt><trkpt lat="45.83243" lon="8.6967633"><ele>253.99999999999997</ele><time>2026-04-26T10:19:58.063Z</time></trkpt><trkpt lat="45.83254" lon="8.6967333"><ele>253.99999999999997</ele><time>2026-04-26T10:19:59.062Z</time></trkpt><trkpt lat="45.8326433" lon="8.6966967"><ele>254.0</ele><time>2026-04-26T10:20:00.062Z</time></trkpt><trkpt lat="45.8327417" lon="8.6966717"><ele>254.0</ele><time>2026-04-26T10:20:01.062Z</time></trkpt><trkpt lat="45.8328383" lon="8.6966767"><ele>254.79999999999998</ele><time>2026-04-26T10:20:02.062Z</time></trkpt><trkpt lat="45.8329467" lon="8.6967033"><ele>255.59999999999997</ele><time>2026-04-26T10:20:03.063Z</time></trkpt><trkpt lat="45.8330467" lon="8.6967183"><ele>256.4</ele><time>2026-04-26T10:20:04.062Z</time></trkpt><trkpt lat="45.8331483" lon="8.6967267"><ele>257.2</ele><time>2026-04-26T10:20:05.062Z</time></trkpt><trkpt lat="45.83323" lon="8.6967133"><ele>258.0</ele><time>2026-04-26T10:20:06.063Z</time></trkpt><trkpt lat="45.8333133" lon="8.6967067"><ele>258.0</ele><time>2026-04-26T10:20:07.062Z</time></trkpt><trkpt lat="45.8333883" lon="8.6966933"><ele>258.0</ele><time>2026-04-26T10:20:08.062Z</time></trkpt><trkpt lat="45.8335183" lon="8.6966967"><ele>258.0</ele><time>2026-04-26T10:20:10.063Z</time></trkpt><trkpt lat="45.8336" lon="8.6967267"><ele>258.0</ele><time>2026-04-26T10:20:11.062Z</time></trkpt><trkpt lat="45.8336967" lon="8.6967667"><ele>258.0</ele><time>2026-04-26T10:20:12.062Z</time></trkpt><trkpt lat="45.8338" lon="8.6968117"><ele>258.0</ele><time>2026-04-26T10:20:13.063Z</time></trkpt><trkpt lat="45.8339033" lon="8.6968517"><ele>258.0</ele><time>2026-04-26T10:20:14.062Z</time></trkpt><trkpt lat="45.834005" lon="8.6968917"><ele>258.0</ele><time>2026-04-26T10:20:15.062Z</time></trkpt><trkpt lat="45.8340883" lon="8.6969333"><ele>258.0</ele><time>2026-04-26T10:20:16.062Z</time></trkpt><trkpt lat="45.8341717" lon="8.6969533"><ele>258.0</ele><time>2026-04-26T10:20:17.062Z</time></trkpt><trkpt lat="45.8342433" lon="8.6969633"><ele>258.0</ele><time>2026-04-26T10:20:18.062Z</time></trkpt><trkpt lat="45.8343083" lon="8.6969333"><ele>258.0</ele><time>2026-04-26T10:20:19.062Z</time></trkpt><trkpt lat="45.8343817" lon="8.6968883"><ele>258.0</ele><time>2026-04-26T10:20:20.062Z</time></trkpt><trkpt lat="45.834425" lon="8.6967683"><ele>258.0</ele><time>2026-04-26T10:20:21.062Z</time></trkpt><trkpt lat="45.8344933" lon="8.6966433"><ele>258.0</ele><time>2026-04-26T10:20:22.062Z</time></trkpt><trkpt lat="45.8345617" lon="8.6965267"><ele>257.4</ele><time>2026-04-26T10:20:23.062Z</time></trkpt><trkpt lat="45.8346233" lon="8.6964033"><ele>256.8</ele><time>2026-04-26T10:20:24.063Z</time></trkpt><trkpt lat="45.8346833" lon="8.6963267"><ele>256.2</ele><time>2026-04-26T10:20:25.062Z</time></trkpt><trkpt lat="45.8348033" lon="8.696365"><ele>255.6</ele><time>2026-04-26T10:20:27.062Z</time></trkpt><trkpt lat="45.834865" lon="8.696465"><ele>255.0</ele><time>2026-04-26T10:20:28.062Z</time></trkpt><trkpt lat="45.834925" lon="8.6966083"><ele>255.0</ele><time>2026-04-26T10:20:29.062Z</time></trkpt><trkpt lat="45.8349883" lon="8.6967433"><ele>255.0</ele><time>2026-04-26T10:20:30.062Z</time></trkpt><trkpt lat="45.8350483" lon="8.6968617"><ele>255.0</ele><time>2026-04-26T10:20:31.062Z</time></trkpt><trkpt lat="45.8351" lon="8.6969683"><ele>255.0</ele><time>2026-04-26T10:20:32.062Z</time></trkpt><trkpt lat="45.8351467" lon="8.697075"><ele>255.0</ele><time>2026-04-26T10:20:33.062Z</time></trkpt><trkpt lat="45.8352017" lon="8.6971833"><ele>255.0</ele><time>2026-04-26T10:20:34.062Z</time></trkpt><trkpt lat="45.83524" lon="8.69727"><ele>255.0</ele><time>2026-04-26T10:20:35.062Z</time></trkpt><trkpt lat="45.835315" lon="8.6973867"><ele>255.0</ele><time>2026-04-26T10:20:37.063Z</time></trkpt><trkpt lat="45.8353583" lon="8.6974533"><ele>255.0</ele><time>2026-04-26T10:20:39.062Z</time></trkpt><trkpt lat="45.8354267" lon="8.6975133"><ele>255.0</ele><time>2026-04-26T10:21:35.062Z</time></trkpt><trkpt lat="45.8355433" lon="8.697505"><ele>255.0</ele><time>2026-04-26T10:21:38.062Z</time></trkpt><trkpt lat="45.83561" lon="8.697465"><ele>255.0</ele><time>2026-04-26T10:21:39.062Z</time></trkpt><trkpt lat="45.835685" lon="8.697415"><ele>255.0</ele><time>2026-04-26T10:21:40.062Z</time></trkpt><trkpt lat="45.835755" lon="8.6973833"><ele>255.0</ele><time>2026-04-26T10:21:41.062Z</time></trkpt><trkpt lat="45.83584" lon="8.6973333"><ele>255.0</ele><time>2026-04-26T10:21:42.062Z</time></trkpt><trkpt lat="45.8359233" lon="8.6972733"><ele>255.0</ele><time>2026-04-26T10:21:43.062Z</time></trkpt><trkpt lat="45.83602" lon="8.6972117"><ele>255.0</ele><time>2026-04-26T10:21:44.062Z</time></trkpt><trkpt lat="45.836125" lon="8.6971567"><ele>254.75</ele><time>2026-04-26T10:21:45.062Z</time></trkpt><trkpt lat="45.8362483" lon="8.697115"><ele>254.5</ele><time>2026-04-26T10:21:46.062Z</time></trkpt><trkpt lat="45.8363767" lon="8.697065"><ele>254.25</ele><time>2026-04-26T10:21:47.062Z</time></trkpt><trkpt lat="45.8364967" lon="8.6970267"><ele>254.0</ele><time>2026-04-26T10:21:48.062Z</time></trkpt><trkpt lat="45.8366083" lon="8.69699"><ele>254.0</ele><time>2026-04-26T10:21:49.062Z</time></trkpt><trkpt lat="45.8367217" lon="8.6969633"><ele>254.0</ele><time>2026-04-26T10:21:50.062Z</time></trkpt><trkpt lat="45.836835" lon="8.6969417"><ele>254.0</ele><time>2026-04-26T10:21:51.062Z</time></trkpt><trkpt lat="45.8369467" lon="8.6969133"><ele>254.0</ele><time>2026-04-26T10:21:52.062Z</time></trkpt><trkpt lat="45.8370633" lon="8.6968883"><ele>251.75</ele><time>2026-04-26T10:21:53.062Z</time></trkpt><trkpt lat="45.8371867" lon="8.69686"><ele>249.5</ele><time>2026-04-26T10:21:54.063Z</time></trkpt><trkpt lat="45.8373" lon="8.6968217"><ele>247.25</ele><time>2026-04-26T10:21:55.062Z</time></trkpt><trkpt lat="45.83741" lon="8.6968"><ele>245.0</ele><time>2026-04-26T10:21:56.063Z</time></trkpt><trkpt lat="45.8375167" lon="8.6967833"><ele>245.0</ele><time>2026-04-26T10:21:57.062Z</time></trkpt><trkpt lat="45.837615" lon="8.6967817"><ele>245.0</ele><time>2026-04-26T10:21:58.062Z</time></trkpt><trkpt lat="45.8377083" lon="8.6967833"><ele>245.0</ele><time>2026-04-26T10:21:59.062Z</time></trkpt><trkpt lat="45.8378033" lon="8.6967567"><ele>245.0</ele><time>2026-04-26T10:22:00.062Z</time></trkpt><trkpt lat="45.8379067" lon="8.69671"><ele>245.0</ele><time>2026-04-26T10:22:01.062Z</time></trkpt><trkpt lat="45.8380317" lon="8.696665"><ele>245.75</ele><time>2026-04-26T10:22:02.062Z</time></trkpt><trkpt lat="45.8381667" lon="8.6966233"><ele>246.5</ele><time>2026-04-26T10:22:03.062Z</time></trkpt><trkpt lat="45.8383083" lon="8.6965817"><ele>247.25</ele><time>2026-04-26T10:22:04.062Z</time></trkpt><trkpt lat="45.83845" lon="8.6965383"><ele>248.0</ele><time>2026-04-26T10:22:05.062Z</time></trkpt><trkpt lat="45.8385983" lon="8.6964867"><ele>249.0</ele><time>2026-04-26T10:22:06.062Z</time></trkpt><trkpt lat="45.8387367" lon="8.6964183"><ele>250.0</ele><time>2026-04-26T10:22:07.063Z</time></trkpt><trkpt lat="45.8388833" lon="8.6963367"><ele>251.0</ele><time>2026-04-26T10:22:08.062Z</time></trkpt><trkpt lat="45.8390267" lon="8.6962517"><ele>251.0</ele><time>2026-04-26T10:22:09.062Z</time></trkpt><trkpt lat="45.8391717" lon="8.6961617"><ele>251.0</ele><time>2026-04-26T10:22:10.063Z</time></trkpt><trkpt lat="45.8393283" lon="8.6960667"><ele>251.0</ele><time>2026-04-26T10:22:11.063Z</time></trkpt><trkpt lat="45.83949" lon="8.695955"><ele>250.66666666666669</ele><time>2026-04-26T10:22:12.062Z</time></trkpt><trkpt lat="45.8396483" lon="8.6958467"><ele>250.33333333333331</ele><time>2026-04-26T10:22:13.062Z</time></trkpt><trkpt lat="45.839785" lon="8.69573"><ele>250.0</ele><time>2026-04-26T10:22:14.062Z</time></trkpt><trkpt lat="45.83991" lon="8.6956217"><ele>250.0</ele><time>2026-04-26T10:22:15.062Z</time></trkpt><trkpt lat="45.8400317" lon="8.6955183"><ele>250.0</ele><time>2026-04-26T10:22:16.062Z</time></trkpt><trkpt lat="45.84014" lon="8.6954133"><ele>250.0</ele><time>2026-04-26T10:22:17.062Z</time></trkpt><trkpt lat="45.8402517" lon="8.6953133"><ele>250.0</ele><time>2026-04-26T10:22:18.062Z</time></trkpt><trkpt lat="45.84037" lon="8.69522"><ele>250.66666666666666</ele><time>2026-04-26T10:22:19.062Z</time></trkpt><trkpt lat="45.8404967" lon="8.6951283"><ele>251.33333333333331</ele><time>2026-04-26T10:22:20.062Z</time></trkpt><trkpt lat="45.8406367" lon="8.6950333"><ele>252.0</ele><time>2026-04-26T10:22:21.063Z</time></trkpt><trkpt lat="45.8407867" lon="8.6949533"><ele>252.0</ele><time>2026-04-26T10:22:22.062Z</time></trkpt><trkpt lat="45.8409333" lon="8.6948817"><ele>252.0</ele><time>2026-04-26T10:22:23.062Z</time></trkpt><trkpt lat="45.84108" lon="8.6948283"><ele>252.0</ele><time>2026-04-26T10:22:24.062Z</time></trkpt><trkpt lat="45.8412467" lon="8.6947883"><ele>252.66666666666669</ele><time>2026-04-26T10:22:25.062Z</time></trkpt><trkpt lat="45.841405" lon="8.6947617"><ele>253.33333333333334</ele><time>2026-04-26T10:22:26.062Z</time></trkpt><trkpt lat="45.8415683" lon="8.6947433"><ele>254.0</ele><time>2026-04-26T10:22:27.062Z</time></trkpt><trkpt lat="45.8417167" lon="8.6947233"><ele>254.5</ele><time>2026-04-26T10:22:28.062Z</time></trkpt><trkpt lat="45.8418517" lon="8.6946983"><ele>255.0</ele><time>2026-04-26T10:22:29.062Z</time></trkpt><trkpt lat="45.84198" lon="8.694665"><ele>255.5</ele><time>2026-04-26T10:22:30.062Z</time></trkpt><trkpt lat="45.8420967" lon="8.69462"><ele>256.0</ele><time>2026-04-26T10:22:31.062Z</time></trkpt><trkpt lat="45.8422" lon="8.694575"><ele>255.99999999999997</ele><time>2026-04-26T10:22:32.062Z</time></trkpt><trkpt lat="45.8422883" lon="8.6945267"><ele>256.0</ele><time>2026-04-26T10:22:33.062Z</time></trkpt><trkpt lat="45.8423617" lon="8.6944867"><ele>256.0</ele><time>2026-04-26T10:22:34.062Z</time></trkpt><trkpt lat="45.8424367" lon="8.6944817"><ele>256.0</ele><time>2026-04-26T10:22:35.062Z</time></trkpt><trkpt lat="45.8425" lon="8.694515"><ele>255.99999999999997</ele><time>2026-04-26T10:22:36.062Z</time></trkpt><trkpt lat="45.84252" lon="8.6946067"><ele>256.0</ele><time>2026-04-26T10:22:37.062Z</time></trkpt><trkpt lat="45.84252" lon="8.6947133"><ele>256.0</ele><time>2026-04-26T10:22:38.062Z</time></trkpt><trkpt lat="45.8424917" lon="8.6948283"><ele>256.0</ele><time>2026-04-26T10:22:39.062Z</time></trkpt><trkpt lat="45.8424233" lon="8.6949517"><ele>256.0</ele><time>2026-04-26T10:22:40.062Z</time></trkpt><trkpt lat="45.842335" lon="8.6950717"><ele>256.0</ele><time>2026-04-26T10:22:41.062Z</time></trkpt><trkpt lat="45.8422467" lon="8.6951933"><ele>256.0</ele><time>2026-04-26T10:22:42.062Z</time></trkpt><trkpt lat="45.8421567" lon="8.6953217"><ele>256.25</ele><time>2026-04-26T10:22:43.062Z</time></trkpt><trkpt lat="45.842065" lon="8.6954467"><ele>256.5</ele><time>2026-04-26T10:22:44.062Z</time></trkpt><trkpt lat="45.841965" lon="8.69558"><ele>256.75</ele><time>2026-04-26T10:22:45.062Z</time></trkpt><trkpt lat="45.84186" lon="8.695705"><ele>257.0</ele><time>2026-04-26T10:22:46.062Z</time></trkpt><trkpt lat="45.84175" lon="8.695845"><ele>256.75</ele><time>2026-04-26T10:22:47.062Z</time></trkpt><trkpt lat="45.8416433" lon="8.6959783"><ele>256.5</ele><time>2026-04-26T10:22:48.062Z</time></trkpt><trkpt lat="45.84154" lon="8.696125"><ele>256.25</ele><time>2026-04-26T10:22:49.062Z</time></trkpt><trkpt lat="45.8414317" lon="8.6962667"><ele>256.0</ele><time>2026-04-26T10:22:50.062Z</time></trkpt><trkpt lat="45.8413267" lon="8.6964"><ele>256.0</ele><time>2026-04-26T10:22:51.063Z</time></trkpt><trkpt lat="45.8412267" lon="8.6965283"><ele>256.0</ele><time>2026-04-26T10:22:52.062Z</time></trkpt><trkpt lat="45.8411317" lon="8.696655"><ele>256.0</ele><time>2026-04-26T10:22:53.062Z</time></trkpt><trkpt lat="45.84103" lon="8.6967883"><ele>256.0</ele><time>2026-04-26T10:22:54.062Z</time></trkpt><trkpt lat="45.840925" lon="8.6969167"><ele>256.25</ele><time>2026-04-26T10:22:55.062Z</time></trkpt><trkpt lat="45.84081" lon="8.6970483"><ele>256.5</ele><time>2026-04-26T10:22:56.063Z</time></trkpt><trkpt lat="45.8406983" lon="8.697175"><ele>256.75</ele><time>2026-04-26T10:22:57.062Z</time></trkpt><trkpt lat="45.8405783" lon="8.69731"><ele>257.0</ele><time>2026-04-26T10:22:58.062Z</time></trkpt><trkpt lat="45.84046" lon="8.6974417"><ele>257.0</ele><time>2026-04-26T10:22:59.062Z</time></trkpt><trkpt lat="45.8403383" lon="8.6976"><ele>257.0</ele><time>2026-04-26T10:23:00.062Z</time></trkpt><trkpt lat="45.8402183" lon="8.6977567"><ele>257.0</ele><time>2026-04-26T10:23:01.062Z</time></trkpt><trkpt lat="45.8401033" lon="8.6978967"><ele>257.25</ele><time>2026-04-26T10:23:02.062Z</time></trkpt><trkpt lat="45.83999" lon="8.698025"><ele>257.5</ele><time>2026-04-26T10:23:03.062Z</time></trkpt><trkpt lat="45.8398917" lon="8.6981383"><ele>257.75</ele><time>2026-04-26T10:23:04.063Z</time></trkpt><trkpt lat="45.83979" lon="8.6982567"><ele>258.0</ele><time>2026-04-26T10:23:05.062Z</time></trkpt><trkpt lat="45.83968" lon="8.698385"><ele>258.0</ele><time>2026-04-26T10:23:06.062Z</time></trkpt><trkpt lat="45.8395683" lon="8.6985167"><ele>258.0</ele><time>2026-04-26T10:23:07.062Z</time></trkpt><trkpt lat="45.83946" lon="8.6986417"><ele>258.0</ele><time>2026-04-26T10:23:08.062Z</time></trkpt><trkpt lat="45.83935" lon="8.6987517"><ele>258.0</ele><time>2026-04-26T10:23:09.062Z</time></trkpt><trkpt lat="45.8392383" lon="8.698865"><ele>256.25</ele><time>2026-04-26T10:23:10.062Z</time></trkpt><trkpt lat="45.839125" lon="8.6989733"><ele>254.5</ele><time>2026-04-26T10:23:11.062Z</time></trkpt><trkpt lat="45.8390233" lon="8.69908"><ele>252.75</ele><time>2026-04-26T10:23:12.062Z</time></trkpt><trkpt lat="45.8389267" lon="8.6991617"><ele>251.0</ele><time>2026-04-26T10:23:13.062Z</time></trkpt><trkpt lat="45.8388467" lon="8.6992417"><ele>251.0</ele><time>2026-04-26T10:23:14.062Z</time></trkpt><trkpt lat="45.838785" lon="8.6992967"><ele>251.00000000000003</ele><time>2026-04-26T10:23:15.062Z</time></trkpt><trkpt lat="45.8386783" lon="8.6993583"><ele>251.00000000000003</ele><time>2026-04-26T10:23:17.062Z</time></trkpt><trkpt lat="45.8385633" lon="8.6992917"><ele>251.0</ele><time>2026-04-26T10:23:19.062Z</time></trkpt><trkpt lat="45.8385033" lon="8.699235"><ele>251.0</ele><time>2026-04-26T10:23:20.062Z</time></trkpt><trkpt lat="45.8384067" lon="8.6991917"><ele>254.0</ele><time>2026-04-26T10:23:22.062Z</time></trkpt><trkpt lat="45.8383317" lon="8.69916"><ele>254.0</ele><time>2026-04-26T10:23:25.062Z</time></trkpt><trkpt lat="45.8383667" lon="8.69925"><ele>254.0</ele><time>2026-04-26T10:23:34.062Z</time></trkpt></trkseg></trk></gpx>